MDT,Max TemperatureF,Mean TemperatureF,Min TemperatureF,Max Dew PointF,MeanDew PointF,Min DewpointF,Max Humidity, Mean Humidity, Min Humidity, Max Sea Level PressureIn, Mean Sea Level PressureIn, Min Sea Level PressureIn, Max VisibilityMiles, Mean VisibilityMiles, Min VisibilityMiles, Max Wind SpeedMPH, Mean Wind SpeedMPH, Max Gust SpeedMPH,PrecipitationIn, CloudCover, Events, WindDirDegrees
2013-7-1,82,70,59,57,52,45,82,65,26,30.35,30.30,30.26,10,10,7,17,9,24,0.00,2,Rain-Thunderstorm,169
2013-7-2,84,70,57,59,50,37,88,62,20,30.34,30.26,30.20,10,10,10,17,8,25,0.00,2,,169
2013-7-3,89,74,59,48,42,32,59,40,14,30.19,30.11,29.99,10,10,10,18,8,17,0.00,1,,218
2013-7-4,93,78,62,46,43,32,52,39,12,30.08,30.03,29.98,10,10,10,12,8,17,0.00,1,,236
2013-7-5,91,78,64,55,47,43,60,41,20,29.99,29.97,29.92,20,12,10,24,8,32,0.00,2,Rain-Thunderstorm,232
2013-7-6,89,76,62,55,50,41,68,46,18,30.07,30.00,29.93,10,10,10,15,11,24,0.00,2,Thunderstorm,221
2013-7-7,86,75,64,52,50,45,59,45,23,30.15,30.10,30.06,20,12,10,15,9,21,0.00,2,Rain,207
2013-7-8,95,80,64,52,48,39,60,44,14,30.18,30.14,30.10,10,10,10,13,6,17,0.00,1,,207
2013-7-9,95,82,68,46,41,32,43,31,11,30.28,30.22,30.18,10,10,7,14,8,17,0.00,1,,243
2013-7-10,93,76,59,57,54,48,82,56,23,30.29,30.23,30.12,20,12,10,24,10,34,0.00,1,Thunderstorm,149
2013-7-11,98,81,64,59,54,39,73,50,13,30.19,30.11,30.01,10,10,10,20,15,29,0.00,1,Rain-Thunderstorm,184
2013-7-12,95,82,69,59,52,46,68,47,19,30.16,30.06,30.01,10,10,10,17,9,21,0.00,2,,217
2013-7-13,91,78,64,70,59,52,94,71,27,30.23,30.17,30.11,10,10,10,17,6,20,0.00,2,Rain-Thunderstorm,221
2013-7-14,82,71,60,66,62,59,100,89,45,30.29,30.22,30.18,10,7,4,16,8,23,0.00,2,,204
2013-7-15,80,71,62,64,56,45,94,63,28,30.28,30.24,30.19,20,11,3,25,9,31,0.00,5,Rain-Thunderstorm,147
2013-7-16,82,70,59,59,51,45,83,58,26,30.31,30.24,30.20,10,10,10,23,14,31,0.00,0,,164
2013-7-17,91,76,62,57,53,45,77,58,21,30.31,30.26,30.19,10,10,10,25,16,32,0.00,0,,167
2013-7-18,95,80,64,59,52,46,78,44,19,30.24,30.18,30.14,10,10,10,33,13,40,0.00,1,Thunderstorm,307
2013-7-19,84,74,64,59,56,52,78,64,33,30.26,30.22,30.16,10,10,10,17,6,25,0.00,2,Thunderstorm,288
2013-7-20,91,76,62,59,57,46,83,71,21,30.16,30.11,30.05,10,10,10,18,8,23,0.00,1,,188
2013-7-21,84,72,60,59,51,41,77,56,31,30.06,30.01,29.98,10,10,10,18,11,24,0.00,0,,200
2013-7-22,95,78,60,59,46,41,77,40,15,30.08,30.02,29.97,20,10,10,17,12,21,0.00,0,,217
2013-7-23,91,80,68,55,44,37,60,35,17,30.23,30.10,30.02,10,10,10,18,13,23,0.00,1,,175
2013-7-24,84,73,60,63,57,48,82,60,32,30.24,30.21,30.15,20,12,10,32,12,55,0.00,2,Rain-Thunderstorm,157
2013-7-25,78,68,59,63,55,52,88,72,41,30.32,30.22,30.13,20,10,7,18,11,24,0.00,3,Rain-Thunderstorm,251
2013-7-26,89,74,60,54,51,39,72,57,17,30.35,30.31,30.24,20,12,10,12,7,,0.00,1,,225
2013-7-27,80,70,59,61,56,50,100,76,42,30.19,30.16,30.12,20,13,4,15,8,20,0.00,6,Rain-Thunderstorm,66
2013-7-28,69,64,60,61,60,59,94,89,73,30.15,30.07,30.03,10,8,2,10,7,,0.00,4,,148
2013-7-29,68,62,57,63,58,54,100,86,68,30.24,30.09,29.99,10,8,0,12,8,,0.00,2,Fog,225
2013-7-30,87,72,57,57,52,45,82,60,22,30.32,30.27,30.24,20,10,10,30,8,41,0.00,3,Rain-Thunderstorm,226
2013-7-31,91,74,57,59,53,43,88,60,20,30.38,30.31,30.21,10,10,10,30,7,46,0.00,1,Rain-Thunderstorm,130